Aérodrome :
LOGIN :

S'inscrire | Disclaimer

   EN    FR    IT 

 










Légende :    VFR   VFR Marginal   IFR   IFR Intensif   IFR Très Intensif
Visi : 
Plafond : 
>= 8 km
>= 3000ft
5 à 8 km
1000 à 3000 ft
1500m à 5 km
500 à 1000 ft
800 à 1500m
200 à 500 ft
< 800m
< 200 ft
Symboles :   Orages  Brouillard  Fortes neiges  Fortes précipitations  Vent > 20 kt
SIGMETs :   Divers  Orages  Givrage  Turbulence  Onde Orograph.  Cendres Volcan.







- Altitude de l'aérodrome : 436 ft
- Code IATA : ANG
- Voir les cartes d'approche


LFBU - Angoulême Brie Champniers

DERNIER METAR :
  • 230900Z AUTO 15007KT 130V190 9999 BKN005 BKN062 BKN072 15/14 Q1019 BECMG BKN040

METARs EXPIRÉS :
  • 230830Z AUTO 15005KT 100V180 9999 BKN004 OVC074 14/14 Q1019 BECMG BKN040
  • 230800Z AUTO 16006KT 9999 SCT003 OVC078 14/14 Q1019 NOSIG
  • 230730Z AUTO 16007KT 9999 BKN002 BKN082 13/13 Q1019 BECMG NSC
  • 230700Z AUTO 15007KT 9999 SCT002 BKN086 BKN250 13/12 Q1019 TEMPO 0800 BCFG
  • 230630Z AUTO 15005KT 9999 FEW002 SCT086 BKN230 12/12 Q1018 TEMPO 0800 BCFG

TAF AMD TAF LFBU
Valide du 23 à 08h jusqu'au 24 à 06h UTC


230841Z 2308/2406 20008KT 9999 BKN004
BECMG 2308/2309 CAVOK
BECMG 2310/2312 BKN040
BECMG 2400/2402 -RA
TEMPO 2402/2406 3000 RA BKN008 OVC025
Pas de NOTAMs connus pour ce terrain.



MET'MAP, la Météo Aéronautique d'un coup d'oeil ! - Copyright ORBIFLY Décembre 2007 - Disclaimer

ORBIFLY MET'MAP TEAM :

Programmation & Développement : Alexandra Zaïnal
Conception & Développement : Baudouin d'Aumeries
Co-Programmation & Développement : Marc-Olivier Méhu
Soutien technique & logistique : Manuel Goepfert

Contact : metmap@orbifly.com




SOURCES & CREDITS :

   NOAA